Time;durP1;ratioP1;P1;durP2;ratioP2;P2;SDS_P1;SDS_P2;PMS_P1;PMS_P2;Temp;Humidity;BMP_temperature;BMP_pressure;BME280_temperature;BME280_humidity;BME280_pressure;Samples;Min_cycle;Max_cycle;Signal;HPM_P1;HPM_P2
2021/04/04 00:01:07;;;;;;;2.65;1.90;;;6.90;99.90;;;;;;5012574;28;20080;-52
2021/04/04 00:03:33;;;;;;;3.13;2.00;;;6.90;99.90;;;;;;5012691;28;20030;-52
2021/04/04 00:05:59;;;;;;;3.47;2.15;;;6.90;99.90;;;;;;4995762;28;20104;-53
2021/04/04 00:08:25;;;;;;;3.88;1.80;;;6.90;99.90;;;;;;5012543;28;20400;-52
2021/04/04 00:10:51;;;;;;;14.38;6.85;;;6.90;99.90;;;;;;5024789;28;20436;-56
2021/04/04 00:13:17;;;;;;;31.60;16.48;;;6.80;99.90;;;;;;5029366;28;20048;-50
2021/04/04 00:15:43;;;;;;;11.57;6.05;;;6.80;99.90;;;;;;5014212;28;20061;-55
2021/04/04 00:18:09;;;;;;;6.72;3.92;;;6.80;99.90;;;;;;5012777;28;20026;-56
2021/04/04 00:20:35;;;;;;;4.35;2.13;;;6.70;99.90;;;;;;5012657;28;20057;-54
2021/04/04 00:23:01;;;;;;;5.10;2.63;;;6.70;99.90;;;;;;5014577;28;20109;-51
2021/04/04 00:25:27;;;;;;;5.47;3.33;;;6.70;99.90;;;;;;5012581;28;20034;-53
2021/04/04 00:27:52;;;;;;;4.38;2.88;;;6.70;99.90;;;;;;5014557;28;20022;-54
2021/04/04 00:30:20;;;;;;;4.95;3.05;;;6.80;99.90;;;;;;5014216;28;20053;-56
2021/04/04 00:32:47;;;;;;;5.18;3.65;;;6.80;99.90;;;;;;5012842;28;20049;-54
2021/04/04 00:35:16;;;;;;;5.10;2.45;;;6.90;99.90;;;;;;5014335;28;20033;-55
2021/04/04 00:37:42;;;;;;;3.83;2.13;;;6.90;99.90;;;;;;5014166;28;20026;-54
2021/04/04 00:40:23;;;;;;;4.57;1.98;;;6.80;99.90;;;;;;4979381;28;20030;-52
2021/04/04 00:42:49;;;;;;;2.92;1.88;;;6.90;99.90;;;;;;5014120;28;20029;-56
2021/04/04 00:45:18;;;;;;;3.03;1.73;;;6.90;99.90;;;;;;4995739;28;20112;-52
2021/04/04 00:47:45;;;;;;;2.25;1.50;;;7.00;99.90;;;;;;5014116;28;20053;-54
2021/04/04 00:50:12;;;;;;;3.00;1.80;;;6.90;99.90;;;;;;5014740;28;20026;-52
2021/04/04 00:52:39;;;;;;;3.28;2.00;;;6.70;99.90;;;;;;5012319;28;20126;-53
2021/04/04 00:55:06;;;;;;;4.22;2.00;;;6.80;99.90;;;;;;5014387;28;20073;-53
2021/04/04 00:57:33;;;;;;;2.78;1.63;;;6.90;99.90;;;;;;5012175;28;20121;-49
2021/04/04 01:00:00;;;;;;;3.67;1.80;;;7.00;99.90;;;;;;5012340;28;20085;-56
2021/04/04 01:02:27;;;;;;;3.42;1.52;;;7.00;99.90;;;;;;5012008;28;20064;-58
2021/04/04 01:04:54;;;;;;;5.07;2.15;;;7.00;99.90;;;;;;5013615;28;20045;-57
2021/04/04 01:07:20;;;;;;;2.85;1.60;;;7.10;99.90;;;;;;4976518;28;20161;-50
2021/04/04 01:09:46;;;;;;;3.40;1.67;;;7.10;99.90;;;;;;4992224;28;20042;-54
2021/04/04 01:12:39;;;;;;;3.47;1.98;;;7.20;99.90;;;;;;4992222;28;20038;-53
2021/04/04 01:15:19;;;;;;;3.47;1.73;;;7.20;99.90;;;;;;4992529;28;20042;-55
2021/04/04 01:17:48;;;;;;;3.50;1.90;;;7.20;99.90;;;;;;4976145;28;20034;-56
2021/04/04 01:20:23;;;;;;;2.75;1.75;;;7.10;99.90;;;;;;4992874;28;20105;-51
2021/04/04 01:22:57;;;;;;;3.78;1.83;;;6.90;99.90;;;;;;4992299;28;20486;-53
2021/04/04 01:25:34;;;;;;;3.08;1.85;;;7.00;99.90;;;;;;4992042;28;20072;-52
2021/04/04 01:28:03;;;;;;;4.97;2.13;;;6.90;99.90;;;;;;4992927;28;20041;-55
2021/04/04 01:30:32;;;;;;;3.55;2.53;;;6.90;99.90;;;;;;4995793;28;20500;-57
2021/04/04 01:33:01;;;;;;;5.90;3.67;;;6.90;99.90;;;;;;4995804;28;20560;-56
2021/04/04 01:35:29;;;;;;;4.13;3.05;;;6.80;99.90;;;;;;4995783;28;20038;-54
2021/04/04 01:37:59;;;;;;;6.63;2.40;;;6.70;99.90;;;;;;5002827;28;20030;-55
2021/04/04 01:40:25;;;;;;;3.15;2.20;;;6.50;99.90;;;;;;5015638;28;20057;-55
2021/04/04 01:42:54;;;;;;;6.40;2.13;;;6.60;99.90;;;;;;5017372;28;20044;-56
2021/04/04 01:45:25;;;;;;;2.75;1.55;;;6.60;99.90;;;;;;5017173;28;20515;-51
2021/04/04 01:47:52;;;;;;;2.97;1.92;;;6.70;99.90;;;;;;5017262;28;20376;-55
2021/04/04 01:50:20;;;;;;;4.72;2.30;;;6.70;99.90;;;;;;5017002;28;20111;-53
2021/04/04 01:52:46;;;;;;;2.78;1.67;;;;;;;;;;5017519;28;20025;-50
2021/04/04 01:55:12;;;;;;;3.45;2.03;;;6.90;99.90;;;;;;5017239;28;20112;-52
2021/04/04 01:57:39;;;;;;;2.95;1.73;;;6.90;99.90;;;;;;5017057;28;20026;-56
2021/04/04 02:00:17;;;;;;;3.45;2.00;;;6.90;99.90;;;;;;5032131;28;20109;-53
2021/04/04 02:02:46;;;;;;;3.03;2.08;;;6.90;99.90;;;;;;4982390;28;20037;-54
2021/04/04 02:05:14;;;;;;;3.25;1.88;;;6.90;99.90;;;;;;5017048;28;20413;-54
2021/04/04 02:07:42;;;;;;;3.13;1.80;;;6.90;99.90;;;;;;5016884;28;20437;-52
2021/04/04 02:10:16;;;;;;;2.90;1.67;;;6.90;99.90;;;;;;5031584;28;20041;-49
2021/04/04 02:12:43;;;;;;;2.97;1.80;;;7.00;99.90;;;;;;5016913;28;20499;-51
2021/04/04 02:15:15;;;;;;;2.70;1.88;;;7.10;99.90;;;;;;5017024;28;20029;-56
2021/04/04 02:17:42;;;;;;;5.20;1.70;;;7.00;99.90;;;;;;4981176;28;20100;-56
2021/04/04 02:20:12;;;;;;;3.63;1.88;;;6.90;99.90;;;;;;5014557;28;20259;-55
2021/04/04 02:22:39;;;;;;;3.35;1.90;;;6.90;99.90;;;;;;4998099;28;20484;-50
2021/04/04 02:25:07;;;;;;;4.35;2.33;;;6.90;99.90;;;;;;4975723;28;20069;-55
2021/04/04 02:27:33;;;;;;;3.05;1.60;;;6.90;99.90;;;;;;4959757;28;20097;-55
2021/04/04 02:29:59;;;;;;;3.20;1.77;;;6.80;99.90;;;;;;4975474;28;20030;-53
2021/04/04 02:32:26;;;;;;;3.05;1.98;;;6.80;99.90;;;;;;4975260;28;20552;-52
2021/04/04 02:34:58;;;;;;;2.60;1.60;;;6.70;99.90;;;;;;4975206;28;20035;-55
2021/04/04 02:37:24;;;;;;;;;;;6.60;99.90;;;;;;4975576;28;20175;-53
2021/04/04 02:40:01;;;;;;;2.05;1.42;;;6.60;99.90;;;;;;4975100;28;19988;-55
2021/04/04 02:42:29;;;;;;;2.55;1.80;;;6.50;99.90;;;;;;4975072;28;20486;-58
2021/04/04 02:44:58;;;;;;;3.80;2.13;;;6.50;99.90;;;;;;4975078;28;20034;-56
2021/04/04 02:47:31;;;;;;;2.25;1.65;;;6.50;99.90;;;;;;4975118;28;20034;-53
2021/04/04 02:49:58;;;;;;;3.25;1.85;;;;;;;;;;4994187;28;20166;-56
2021/04/04 02:52:26;;;;;;;4.32;2.20;;;6.40;99.90;;;;;;4994355;28;20037;-56
2021/04/04 02:54:55;;;;;;;2.40;1.77;;;6.30;99.90;;;;;;4962545;28;20042;-52
2021/04/04 02:57:26;;;;;;;3.55;1.95;;;6.20;99.90;;;;;;5016017;28;20022;-54
2021/04/04 02:59:54;;;;;;;5.03;2.20;;;;;;;;;;5030685;28;20392;-55
2021/04/04 03:02:20;;;;;;;3.67;2.33;;;;;;;;;;5015936;28;20088;-55
2021/04/04 03:04:48;;;;;;;3.63;2.28;;;;;;;;;;5015983;28;20045;-52
2021/04/04 03:07:24;;;;;;;5.43;2.20;;;6.10;99.90;;;;;;5015825;28;20080;-57
2021/04/04 03:09:51;;;;;;;3.35;2.30;;;;;;;;;;5014458;28;20042;-58
2021/04/04 03:12:20;;;;;;;3.47;2.13;;;6.10;99.90;;;;;;5015827;28;20044;-54
2021/04/04 03:14:48;;;;;;;4.15;2.17;;;6.10;99.90;;;;;;5015754;28;20040;-56
2021/04/04 03:17:15;;;;;;;3.75;2.00;;;;;;;;;;5015798;28;20026;-53
2021/04/04 03:19:42;;;;;;;2.90;2.00;;;;;;;;;;5015480;28;20022;-50
2021/04/04 03:22:08;;;;;;;2.72;1.70;;;;;;;;;;5015465;28;20083;-55
2021/04/04 03:24:35;;;;;;;3.00;2.22;;;;;;;;;;5015407;28;20022;-51
2021/04/04 03:27:01;;;;;;;3.45;1.95;;;;;;;;;;5030537;28;20116;-53
2021/04/04 03:29:28;;;;;;;2.55;1.73;;;;;;;;;;5015655;28;20109;-56
2021/04/04 03:31:55;;;;;;;4.00;2.20;;;;;;;;;;5015276;28;20022;-55
2021/04/04 03:34:21;;;;;;;2.60;1.92;;;;;;;;;;5015650;28;20034;-52
2021/04/04 03:36:49;;;;;;;4.32;2.08;;;;;;;;;;5015165;28;20033;-58
2021/04/04 03:39:15;;;;;;;2.58;1.88;;;;;;;;;;5015176;28;20022;-54
2021/04/04 03:41:42;;;;;;;3.05;2.10;;;;;;;;;;5015220;28;20025;-52
2021/04/04 03:44:08;;;;;;;3.42;2.20;;;;;;;;;;5013529;28;20092;-57
2021/04/04 03:46:34;;;;;;;3.63;1.92;;;;;;;;;;5015301;28;20026;-53
2021/04/04 03:49:02;;;;;;;3.63;2.30;;;6.00;99.90;;;;;;5014194;28;20032;-49
2021/04/04 03:51:31;;;;;;;3.00;2.15;;;6.00;99.90;;;;;;5014429;28;20022;-53
2021/04/04 03:53:59;;;;;;;4.15;2.38;;;6.00;99.90;;;;;;4980750;28;20052;-52
2021/04/04 03:56:34;;;;;;;3.22;1.98;;;6.00;99.90;;;;;;5014991;28;20092;-56
2021/04/04 03:59:03;;;;;;;5.53;2.00;;;6.10;99.90;;;;;;5014922;28;20022;-54
2021/04/04 04:01:31;;;;;;;3.08;1.88;;;6.10;99.90;;;;;;5014778;28;20022;-51
2021/04/04 04:03:59;;;;;;;3.30;1.67;;;5.90;99.90;;;;;;5012931;28;20121;-56
2021/04/04 04:06:25;;;;;;;2.58;1.80;;;6.00;99.90;;;;;;5014622;28;20100;-53
2021/04/04 04:08:52;;;;;;;4.30;2.05;;;5.90;99.90;;;;;;5014825;28;20022;-61
2021/04/04 04:11:18;;;;;;;2.97;1.85;;;6.00;99.90;;;;;;5014239;28;20029;-54
2021/04/04 04:13:45;;;;;;;2.65;1.67;;;6.00;99.90;;;;;;5014856;28;20034;-50
2021/04/04 04:16:14;;;;;;;3.45;1.88;;;6.10;99.90;;;;;;5014836;28;20049;-52
2021/04/04 04:18:44;;;;;;;4.22;2.40;;;6.10;99.90;;;;;;5014510;28;20018;-56
2021/04/04 04:21:15;;;;;;;3.08;1.92;;;6.10;99.90;;;;;;5014739;28;20551;-55
2021/04/04 04:23:42;;;;;;;4.78;2.13;;;5.90;99.90;;;;;;5014563;28;20056;-52
2021/04/04 04:26:14;;;;;;;4.43;2.15;;;5.80;99.90;;;;;;5014544;28;20022;-55
2021/04/04 04:28:40;;;;;;;3.50;1.83;;;;;;;;;;5012525;28;20370;-53
2021/04/04 04:31:09;;;;;;;4.18;2.15;;;;;;;;;;5014451;28;20097;-54
2021/04/04 04:33:35;;;;;;;3.20;1.52;;;;;;;;;;5014622;28;20037;-53
2021/04/04 04:36:01;;;;;;;4.95;2.22;;;6.40;99.90;;;;;;5028950;28;20066;-53
2021/04/04 04:38:29;;;;;;;2.38;1.75;;;6.40;99.90;;;;;;5014465;28;20033;-55
2021/04/04 04:40:56;;;;;;;3.67;1.60;;;6.40;99.90;;;;;;5014342;28;20017;-57
2021/04/04 04:43:24;;;;;;;4.03;2.15;;;6.20;99.90;;;;;;5012472;28;20477;-52
2021/04/04 04:45:52;;;;;;;3.38;1.98;;;6.20;99.90;;;;;;5014251;28;20547;-54
2021/04/04 04:48:19;;;;;;;4.93;2.35;;;6.20;99.90;;;;;;5014297;28;20026;-52
2021/04/04 04:50:45;;;;;;;3.13;2.28;;;6.20;99.90;;;;;;5014618;28;20529;-54
2021/04/04 04:53:11;;;;;;;3.72;1.95;;;6.30;99.90;;;;;;5014185;28;20036;-52
2021/04/04 04:55:40;;;;;;;3.30;2.15;;;6.40;99.90;;;;;;5013946;28;20388;-52
2021/04/04 04:58:06;;;;;;;2.08;1.45;;;6.40;99.90;;;;;;4963190;28;20030;-53
2021/04/04 05:00:34;;;;;;;3.47;1.95;;;6.40;99.90;;;;;;5012430;28;20540;-57
2021/04/04 05:02:59;;;;;;;3.28;1.98;;;6.30;99.90;;;;;;5014597;28;20084;-58
2021/04/04 05:05:25;;;;;;;2.80;1.80;;;6.40;99.90;;;;;;4999358;28;20050;-51
2021/04/04 05:07:53;;;;;;;4.97;2.92;;;6.40;99.90;;;;;;5015965;28;20030;-55
2021/04/04 05:10:21;;;;;;;4.38;2.42;;;6.40;99.90;;;;;;5015911;28;20105;-55
2021/04/04 05:12:54;;;;;;;3.67;2.13;;;6.40;99.90;;;;;;5015750;28;20037;-50
2021/04/04 05:15:24;;;;;;;2.88;2.00;;;6.40;99.90;;;;;;5015868;28;20034;-53
2021/04/04 05:17:50;;;;;;;4.22;2.60;;;6.50;99.90;;;;;;5015911;28;20074;-56
2021/04/04 05:20:17;;;;;;;3.75;2.38;;;6.50;99.90;;;;;;5015858;28;20034;-52
2021/04/04 05:22:44;;;;;;;4.57;2.38;;;;;;;;;;4966954;28;20038;-54
2021/04/04 05:25:10;;;;;;;3.40;2.25;;;6.70;99.90;;;;;;5015828;28;20046;-51
2021/04/04 05:27:37;;;;;;;3.25;2.40;;;6.60;99.90;;;;;;4982920;28;20045;-62
2021/04/04 05:30:11;;;;;;;4.63;2.38;;;6.60;99.90;;;;;;5015526;28;20033;-51
2021/04/04 05:32:47;;;;;;;6.88;3.67;;;6.50;99.90;;;;;;4950580;28;20326;-50
2021/04/04 05:35:24;;;;;;;6.50;2.67;;;6.60;99.90;;;;;;5015966;28;20412;-53
2021/04/04 05:37:51;;;;;;;4.75;2.55;;;6.50;99.90;;;;;;5015959;28;20030;-54
2021/04/04 05:40:23;;;;;;;2.80;1.90;;;6.50;99.90;;;;;;5017409;28;20141;-56
2021/04/04 05:42:54;;;;;;;4.50;2.13;;;6.50;99.90;;;;;;5032126;28;20038;-53
2021/04/04 05:45:32;;;;;;;6.90;3.25;;;6.50;99.90;;;;;;5015442;28;20554;-51
2021/04/04 05:48:35;;;;;;;3.75;2.45;;;6.50;99.90;;;;;;4999489;28;20062;-52
2021/04/04 05:51:10;;;;;;;3.20;2.08;;;6.60;99.90;;;;;;5013917;28;20038;-55
2021/04/04 05:54:08;;;;;;;3.88;2.00;;;6.40;99.90;;;;;;5017363;28;20033;-49
2021/04/04 05:56:51;;;;;;;3.30;2.13;;;;;;;;;;5017060;28;20492;-58
2021/04/04 05:59:46;;;;;;;4.60;2.70;;;6.80;99.90;;;;;;5017071;28;20026;-56
2021/04/04 06:02:30;;;;;;;4.68;2.30;;;;;;;;;;4995673;28;20035;-55
2021/04/04 06:05:24;;;;;;;5.75;2.80;;;7.00;99.90;;;;;;4995050;28;20054;-56
2021/04/04 06:08:08;;;;;;;3.85;2.17;;;7.20;99.90;;;;;;4981454;28;20426;-53
2021/04/04 06:10:53;;;;;;;4.13;2.78;;;7.10;99.90;;;;;;4979004;28;20082;-52
2021/04/04 06:13:37;;;;;;;4.68;2.80;;;7.00;99.90;;;;;;4994771;28;20057;-53
2021/04/04 06:16:19;;;;;;;4.90;2.83;;;7.10;99.90;;;;;;4978336;28;20053;-51
2021/04/04 06:19:05;;;;;;;4.53;2.17;;;7.20;99.90;;;;;;4994749;28;20030;-51
2021/04/04 06:21:45;;;;;;;4.50;2.50;;;7.10;99.90;;;;;;4994899;28;20516;-54
2021/04/04 06:24:26;;;;;;;5.00;3.20;;;7.20;99.90;;;;;;4994864;28;20028;-58
2021/04/04 06:27:29;;;;;;;9.05;2.33;;;7.10;99.90;;;;;;4994827;28;20042;-52
2021/04/04 06:33:17;;;;;;;2.97;2.17;;;7.00;99.90;;;;;;4995007;28;20058;-56
2021/04/04 06:35:52;;;;;;;3.25;2.40;;;7.00;99.90;;;;;;4994474;28;20415;-55
2021/04/04 06:38:44;;;;;;;3.10;2.20;;;7.00;99.90;;;;;;4997356;28;20057;-50
2021/04/04 06:41:19;;;;;;;5.10;2.47;;;6.80;99.90;;;;;;5016199;28;20432;-50
2021/04/04 06:44:13;;;;;;;3.58;2.20;;;6.90;99.90;;;;;;5016476;28;20080;-51
2021/04/04 06:47:00;;;;;;;5.10;3.63;;;6.90;99.90;;;;;;5014433;28;20033;-55
2021/04/04 06:49:26;;;;;;;4.95;2.70;;;6.90;99.90;;;;;;5016070;28;20378;-54
2021/04/04 06:52:17;;;;;;;4.15;2.67;;;7.00;99.90;;;;;;5016164;28;20032;-55
2021/04/04 06:55:03;;;;;;;5.35;2.72;;;7.00;99.90;;;;;;5016620;28;20030;-55
2021/04/04 06:58:04;;;;;;;3.05;2.00;;;6.90;99.90;;;;;;5011826;28;20034;-56
2021/04/04 07:00:53;;;;;;;4.28;2.67;;;6.90;99.90;;;;;;5016205;28;20033;-57
2021/04/04 07:03:23;;;;;;;4.53;2.45;;;7.00;99.90;;;;;;5014780;28;20022;-52
2021/04/04 07:06:23;;;;;;;3.63;2.55;;;7.10;99.90;;;;;;5014490;28;20115;-55
2021/04/04 07:09:03;;;;;;;4.03;2.63;;;7.10;99.90;;;;;;5014576;28;20029;-53
2021/04/04 07:11:56;;;;;;;3.42;2.15;;;7.20;99.90;;;;;;5014321;28;20029;-54
2021/04/04 07:14:31;;;;;;;3.83;2.15;;;7.20;99.90;;;;;;5014378;28;20037;-54
2021/04/04 07:17:00;;;;;;;4.47;2.72;;;7.30;99.90;;;;;;5014263;28;20579;-55
2021/04/04 07:19:42;;;;;;;4.55;2.78;;;;;;;;;;5014275;28;20037;-55
2021/04/04 07:22:30;;;;;;;4.43;2.97;;;7.30;99.90;;;;;;5014397;28;20025;-51
2021/04/04 07:25:30;;;;;;;4.57;2.45;;;7.60;99.90;;;;;;5014015;28;20030;-52
2021/04/04 07:28:09;;;;;;;2.80;2.33;;;7.60;99.90;;;;;;5012150;28;20030;-54
2021/04/04 07:30:42;;;;;;;4.57;2.92;;;7.40;99.90;;;;;;5014399;28;20026;-52
2021/04/04 07:33:38;;;;;;;3.10;1.90;;;7.70;99.90;;;;;;5014219;28;20412;-54
2021/04/04 07:36:13;;;;;;;5.45;3.00;;;7.40;99.90;;;;;;5014140;28;20083;-56
2021/04/04 07:39:04;;;;;;;3.03;2.33;;;7.60;99.90;;;;;;5013938;28;20036;-53
2021/04/04 07:41:36;;;;;;;8.27;3.27;;;;;;;;;;4991709;28;20890;-52
2021/04/04 07:44:07;;;;;;;3.90;3.03;;;8.00;99.90;;;;;;4992037;28;20485;-57
2021/04/04 07:46:54;;;;;;;4.30;2.43;;;8.20;99.90;;;;;;4991812;28;20279;-57
2021/04/04 07:49:37;;;;;;;5.15;3.13;;;7.90;99.90;;;;;;4991867;28;20029;-52
2021/04/04 07:52:13;;;;;;;4.25;2.38;;;8.00;99.90;;;;;;4991814;28;20057;-54
2021/04/04 07:54:55;;;;;;;3.67;2.45;;;7.90;99.90;;;;;;4991790;28;20026;-51
2021/04/04 07:57:38;;;;;;;4.13;2.30;;;7.70;99.90;;;;;;4991745;28;20033;-55
2021/04/04 08:00:10;;;;;;;3.78;2.00;;;7.80;99.90;;;;;;4991813;28;20039;-55
2021/04/04 08:02:40;;;;;;;5.60;2.63;;;7.70;99.90;;;;;;4991632;28;20408;-54
2021/04/04 08:05:09;;;;;;;4.00;2.50;;;7.90;99.90;;;;;;4991174;28;20054;-48
2021/04/04 08:07:58;;;;;;;4.60;2.00;;;7.90;99.90;;;;;;4991417;28;20113;-53
2021/04/04 08:10:36;;;;;;;4.15;2.17;;;7.80;99.90;;;;;;4991259;28;20436;-52
2021/04/04 08:13:04;;;;;;;3.15;2.22;;;7.60;99.90;;;;;;4991452;28;20042;-55
2021/04/04 08:15:34;;;;;;;6.68;3.70;;;7.60;99.90;;;;;;4974997;28;20633;-51
2021/04/04 08:18:01;;;;;;;4.85;2.42;;;7.90;99.90;;;;;;4998320;28;20421;-51
2021/04/04 08:20:27;;;;;;;2.58;1.63;;;;;;;;;;5010959;28;20091;-54
2021/04/04 08:23:00;;;;;;;3.90;2.75;;;;;;;;;;5013160;28;20041;-55
2021/04/04 08:25:47;;;;;;;4.72;2.53;;;;;;;;;;4994395;28;20079;-53
2021/04/04 08:28:19;;;;;;;6.57;3.85;;;;;;;;;;5012976;28;20045;-51
2021/04/04 08:30:54;;;;;;;4.70;2.75;;;8.40;99.90;;;;;;5011081;28;20100;-54
2021/04/04 08:33:22;;;;;;;6.85;3.42;;;8.70;99.90;;;;;;5012969;28;20072;-51
2021/04/04 08:35:51;;;;;;;3.83;2.20;;;8.60;99.90;;;;;;5013040;28;20033;-50
2021/04/04 08:38:27;;;;;;;3.00;2.22;;;8.30;99.90;;;;;;5012826;28;20026;-54
2021/04/04 08:40:58;;;;;;;5.40;3.47;;;8.20;99.90;;;;;;5012902;28;20054;-54
2021/04/04 08:43:26;;;;;;;4.88;3.40;;;8.40;99.90;;;;;;5012994;28;20022;-49
2021/04/04 08:45:55;;;;;;;3.13;2.20;;;;;;;;;;5012928;28;20026;-53
2021/04/04 09:00:34;;;;;;;8.02;5.10;;;;;;;;;;5150932;27;20385;-51
2021/04/04 09:03:19;;;;;;;7.30;5.53;;;10.00;99.90;;;;;;5151242;27;20091;-48
2021/04/04 09:05:46;;;;;;;12.52;6.90;;;9.90;99.90;;;;;;5151212;27;20165;-51
2021/04/04 09:08:13;;;;;;;57.95;24.67;;;9.90;99.90;;;;;;5151099;27;20027;-48
2021/04/04 09:10:41;;;;;;;10.25;4.63;;;9.80;99.90;;;;;;5151110;27;20129;-47
2021/04/04 09:13:08;;;;;;;18.83;10.88;;;;;;;;;;5151166;27;20418;-47
2021/04/04 09:15:54;;;;;;;10.13;6.63;;;9.60;99.90;;;;;;5150865;27;20023;-47
2021/04/04 09:18:21;;;;;;;23.30;13.35;;;9.40;99.90;;;;;;5150995;27;20417;-46
2021/04/04 09:33:37;;;;;;;5.55;2.85;;;;;;;;;;5152174;27;20396;-50
2021/04/04 09:36:06;;;;;;;4.65;2.47;;;10.00;99.90;;;;;;5152340;27;20473;-51
2021/04/04 09:38:40;;;;;;;4.95;3.20;;;;;;;;;;5116773;27;20041;-48
2021/04/04 09:41:07;;;;;;;4.70;3.10;;;10.60;99.90;;;;;;5152076;27;20062;-49
2021/04/04 09:44:02;;;;;;;5.03;3.30;;;10.50;99.90;;;;;;5152198;27;20031;-51
2021/04/04 09:46:28;;;;;;;4.50;2.83;;;10.40;99.90;;;;;;5152332;27;20105;-50
2021/04/04 09:48:54;;;;;;;5.35;2.78;;;10.30;99.90;;;;;;5152158;27;20027;-56
2021/04/04 09:51:20;;;;;;;4.38;2.88;;;10.30;99.90;;;;;;5151974;27;20023;-52
2021/04/04 09:53:48;;;;;;;3.55;2.42;;;10.70;99.90;;;;;;5132871;27;20035;-51
2021/04/04 09:56:16;;;;;;;3.78;2.92;;;10.30;99.90;;;;;;5133020;27;20033;-53
2021/04/04 09:58:43;;;;;;;6.40;3.72;;;10.50;99.90;;;;;;5151800;27;20422;-51
2021/04/04 10:01:24;;;;;;;6.78;4.18;;;10.70;99.90;;;;;;5151635;27;20477;-55
2021/04/04 10:04:01;;;;;;;5.68;2.83;;;11.00;99.90;;;;;;5151746;27;20027;-54
2021/04/04 10:06:29;;;;;;;16.85;9.35;;;10.60;99.90;;;;;;5150412;27;20027;-52
2021/04/04 10:09:05;;;;;;;4.63;2.47;;;10.90;99.90;;;;;;5151244;27;20045;-52
2021/04/04 10:11:32;;;;;;;4.72;3.72;;;10.50;99.90;;;;;;5132581;27;20118;-52
2021/04/04 10:14:07;;;;;;;32.33;15.05;;;10.60;99.90;;;;;;5151206;27;20019;-47
2021/04/04 10:16:33;;;;;;;7.45;4.90;;;10.40;99.90;;;;;;5151533;27;20029;-54
2021/04/04 10:19:06;;;;;;;9.77;6.07;;;10.50;99.90;;;;;;5151425;27;20030;-52
2021/04/04 10:21:35;;;;;;;43.53;17.40;;;11.10;99.90;;;;;;5132263;27;20027;-53
2021/04/04 10:24:31;;;;;;;9.13;4.70;;;11.70;99.90;;;;;;5128608;28;20118;-53
2021/04/04 10:27:25;;;;;;;7.57;5.03;;;11.80;99.90;;;;;;5128519;28;20114;-49
2021/04/04 10:30:15;;;;;;;4.53;3.53;;;;;;;;;;5128573;28;20034;-53
2021/04/04 10:32:45;;;;;;;5.15;3.13;;;;;;;;;;5124989;28;20154;-50
2021/04/04 10:35:13;;;;;;;6.05;3.33;;;12.40;99.90;;;;;;5114480;28;20032;-51
2021/04/04 10:37:39;;;;;;;4.10;2.15;;;12.90;99.90;;;;;;5110392;28;20032;-53
2021/04/04 10:40:09;;;;;;;4.53;3.45;;;12.60;99.90;;;;;;5079319;28;20038;-49
2021/04/04 10:42:35;;;;;;;5.57;2.80;;;;;;;;;;5113202;28;20063;-53
2021/04/04 10:45:07;;;;;;;4.85;3.15;;;13.70;99.90;;;;;;5113223;28;20063;-51
2021/04/04 10:47:32;;;;;;;4.10;2.70;;;14.10;99.90;;;;;;5079064;28;20119;-51
2021/04/04 10:50:03;;;;;;;4.07;2.95;;;13.00;99.90;;;;;;5112838;28;20115;-53
2021/04/04 10:52:29;;;;;;;2.72;2.00;;;;;;;;;;5095913;28;20058;-51
2021/04/04 10:54:58;;;;;;;5.65;3.90;;;;;;;;;;5095182;27;20103;-53
2021/04/04 10:57:26;;;;;;;3.50;2.55;;;11.60;99.90;;;;;;5112899;28;20031;-54
2021/04/04 10:59:53;;;;;;;1.88;1.48;;;;;;;;;;5095986;28;20035;-56
2021/04/04 11:02:19;;;;;;;2.55;2.10;;;10.30;99.90;;;;;;5112649;28;20039;-55
2021/04/04 11:04:46;;;;;;;2.17;1.77;;;10.20;99.90;;;;;;5112717;28;20036;-51
2021/04/04 11:07:12;;;;;;;3.05;2.45;;;10.10;99.90;;;;;;5112725;28;20031;-51
2021/04/04 11:09:38;;;;;;;3.95;2.03;;;10.00;99.90;;;;;;5094811;28;20024;-54
2021/04/04 11:12:06;;;;;;;2.38;2.05;;;10.10;99.90;;;;;;5075161;28;20089;-51
2021/04/04 11:14:34;;;;;;;1.50;1.35;;;10.30;99.90;;;;;;5058521;28;20040;-56
2021/04/04 11:17:02;;;;;;;3.28;2.17;;;11.10;99.90;;;;;;5091923;28;20051;-54
2021/04/04 11:19:29;;;;;;;4.15;2.58;;;11.10;99.90;;;;;;5092179;28;20092;-53
2021/04/04 11:21:58;;;;;;;3.88;2.45;;;11.10;99.90;;;;;;5091977;28;20032;-54
2021/04/04 11:24:25;;;;;;;4.45;3.08;;;11.60;99.90;;;;;;5070979;28;20400;-51
2021/04/04 11:26:58;;;;;;;4.50;3.10;;;11.70;99.90;;;;;;5071725;28;20037;-50
2021/04/04 11:29:27;;;;;;;5.10;2.40;;;12.40;99.90;;;;;;5108694;28;20039;-48
2021/04/04 11:31:55;;;;;;;3.05;2.60;;;;;;;;;;5111858;28;20056;-52
2021/04/04 11:34:22;;;;;;;4.80;3.30;;;;;;;;;;5051468;28;20037;-51
2021/04/04 11:36:48;;;;;;;4.28;2.38;;;13.60;99.90;;;;;;5051547;28;20069;-48
2021/04/04 11:39:14;;;;;;;6.03;3.45;;;;;;;;;;5051485;28;20122;-52
2021/04/04 11:41:50;;;;;;;7.60;4.95;;;14.30;99.90;;;;;;5030583;28;20048;-49
2021/04/04 11:44:34;;;;;;;9.10;4.53;;;13.80;99.90;;;;;;5031017;28;20499;-51
2021/04/04 11:47:00;;;;;;;3.60;2.58;;;13.00;99.90;;;;;;4991848;28;20054;-50
2021/04/04 11:49:35;;;;;;;2.97;2.20;;;13.00;99.90;;;;;;4975635;28;20076;-49
2021/04/04 11:52:23;;;;;;;4.43;2.90;;;13.00;99.90;;;;;;5008068;28;20137;-53
2021/04/04 11:54:52;;;;;;;4.55;3.20;;;13.50;99.90;;;;;;5001561;28;20053;-54
2021/04/04 11:57:20;;;;;;;6.82;4.03;;;;;;;;;;5031127;28;20150;-52
2021/04/04 11:59:48;;;;;;;3.58;2.60;;;;;;;;;;5031188;28;20463;-50
2021/04/04 12:02:16;;;;;;;2.78;1.77;;;11.50;99.90;;;;;;5031111;28;20158;-51
2021/04/04 12:04:47;;;;;;;2.65;1.67;;;;;;;;;;5045552;28;20491;-51
2021/04/04 12:07:17;;;;;;;3.47;2.38;;;10.90;99.90;;;;;;5105021;28;20055;-50
2021/04/04 12:09:47;;;;;;;4.13;2.70;;;11.00;99.90;;;;;;5111390;28;20118;-54
2021/04/04 12:12:14;;;;;;;1.75;1.02;;;11.20;99.90;;;;;;5111402;28;20051;-48
2021/04/04 12:14:53;;;;;;;1.83;1.42;;;11.00;99.90;;;;;;5111526;28;20064;-53
2021/04/04 12:17:21;;;;;;;4.40;2.63;;;10.70;99.90;;;;;;5111975;28;20055;-52
2021/04/04 12:19:47;;;;;;;5.82;1.95;;;;;;;;;;5113866;28;20027;-53
2021/04/04 12:22:16;;;;;;;3.50;2.10;;;;;;;;;;5113402;28;20130;-54
2021/04/04 12:24:43;;;;;;;3.38;2.28;;;9.30;99.90;;;;;;5129448;27;20129;-51
2021/04/04 12:27:11;;;;;;;4.43;2.50;;;9.00;99.90;;;;;;5131808;27;20138;-53
2021/04/04 12:29:47;;;;;;;4.53;1.80;;;9.10;99.90;;;;;;5114947;27;20437;-54
2021/04/04 12:32:34;;;;;;;3.08;2.30;;;8.90;99.90;;;;;;5133883;27;20138;-50
2021/04/04 12:35:05;;;;;;;4.00;2.20;;;8.70;99.90;;;;;;5134129;27;20067;-50
2021/04/04 12:37:35;;;;;;;2.22;1.52;;;8.90;99.90;;;;;;5114700;27;20079;-53
2021/04/04 12:40:04;;;;;;;2.58;2.00;;;8.90;99.90;;;;;;5133934;27;20480;-56
2021/04/04 12:42:35;;;;;;;4.28;2.55;;;8.90;99.90;;;;;;5097576;27;20053;-52
2021/04/04 12:45:09;;;;;;;6.15;2.92;;;9.20;99.90;;;;;;5133935;27;20023;-49
2021/04/04 12:47:38;;;;;;;3.60;2.55;;;9.60;99.90;;;;;;5133844;27;20483;-54
2021/04/04 12:50:10;;;;;;;17.38;6.15;;;9.80;99.90;;;;;;5133692;27;20035;-53
2021/04/04 12:52:39;;;;;;;;;;;9.90;99.90;;;;;;5098665;28;20047;-47
2021/04/04 12:55:09;;;;;;;236.63;67.82;;;;;;;;;;5133619;27;19951;-54
2021/04/04 12:57:35;;;;;;;66.80;20.08;;;;;;;;;;5133383;27;20035;-48
2021/04/04 13:00:01;;;;;;;15.75;6.70;;;;;;;;;;5133449;27;20019;-52
2021/04/04 13:02:27;;;;;;;9.68;5.10;;;;;;;;;;5133545;27;20039;-53
2021/04/04 13:04:59;;;;;;;11.00;5.45;;;11.10;99.90;;;;;;5133587;27;20039;-50
2021/04/04 13:07:26;;;;;;;3.88;2.33;;;11.30;99.90;;;;;;5133684;27;20042;-52
2021/04/04 13:09:52;;;;;;;4.25;2.63;;;;;;;;;;5133549;27;20400;-53
2021/04/04 13:12:21;;;;;;;6.45;3.28;;;;;;;;;;5133406;27;20031;-49
2021/04/04 13:14:47;;;;;;;3.10;2.40;;;13.00;99.90;;;;;;5133342;27;20031;-49
2021/04/04 13:17:13;;;;;;;5.45;3.33;;;12.90;99.90;;;;;;5133386;27;20045;-54
2021/04/04 13:19:40;;;;;;;4.53;2.42;;;12.10;99.90;;;;;;5133447;27;20462;-50
2021/04/04 13:22:08;;;;;;;2.92;2.13;;;12.00;99.90;;;;;;5133248;27;20043;-53
2021/04/04 13:24:34;;;;;;;6.03;3.95;;;12.40;99.90;;;;;;5133419;27;20035;-53
2021/04/04 13:27:00;;;;;;;6.35;3.08;;;12.60;99.90;;;;;;5113887;28;20523;-49
2021/04/04 13:29:38;;;;;;;4.50;2.75;;;13.00;99.90;;;;;;5133380;28;20039;-51
2021/04/04 13:32:04;;;;;;;3.78;2.53;;;;;;;;;;5133082;27;20393;-54
2021/04/04 13:34:39;;;;;;;3.53;1.80;;;;;;;;;;5133348;28;20074;-50
2021/04/04 13:37:05;;;;;;;1.90;1.40;;;11.50;99.90;;;;;;5133246;27;20434;-51
2021/04/04 13:39:40;;;;;;;3.28;1.70;;;11.30;99.90;;;;;;5113534;28;20067;-53
2021/04/04 13:42:08;;;;;;;2.35;1.75;;;11.30;99.90;;;;;;5133035;27;20078;-51
2021/04/04 13:44:42;;;;;;;4.07;2.13;;;11.20;99.90;;;;;;5113876;28;20043;-51
2021/04/04 13:47:22;;;;;;;3.20;2.42;;;11.20;99.90;;;;;;5113807;28;20127;-53
2021/04/04 13:49:48;;;;;;;3.85;2.40;;;11.10;99.90;;;;;;5133024;27;20419;-49
2021/04/04 13:52:19;;;;;;;4.63;3.20;;;11.10;99.90;;;;;;5132949;27;20023;-51
2021/04/04 13:54:48;;;;;;;3.97;2.53;;;11.40;99.90;;;;;;5113799;28;20069;-53
2021/04/04 13:57:14;;;;;;;3.80;2.60;;;11.80;99.90;;;;;;5113726;28;20489;-54
2021/04/04 13:59:51;;;;;;;4.07;2.75;;;12.10;99.90;;;;;;5133096;27;20110;-51
2021/04/04 14:02:21;;;;;;;3.78;2.70;;;12.50;99.90;;;;;;5113630;28;20043;-50
2021/04/04 14:04:48;;;;;;;3.70;2.55;;;13.00;99.90;;;;;;5132969;27;20080;-52